Arriola, Colorado
Current Conditions -  °F | °C
As of 5:53 AM on Saturday 20 Dec 2014 (Local Time) from KCEZ Reporting Station
Clear Clear  
Wind Chill: 17°   Ceiling: Unl
Heat Index: 23°   Visibility: 10mi
Dew Point: 20°   Wind: 5mph
Humidity: 88%   Direction: 60°ENE
Pressure: 30.16"   Gusts: NA
Location:  37.3484°N, 108.734°W
Report Text: KCEZ 201253Z AUTO 06004KT 10SM CLR M05/M07 A3016 RMK AO2 SLP224 T10501067
Loading
Personal Weather Stations






























Interactive Weather Map New forecast layout! Learn more

10-Day Weather Forecast

Advertisements
Track Severe Weather on mobile